Weather at Abu Dhabi International Airport

Public forecast

Using degrees Celsius for public forecast. Weather courtesy of forecast.io.

Current aviation weather report (METAR) for Abu Dhabi International Airport

Retrieved 2021/10/16 17:00 UTC (1 hour ago):

OMAA 161700Z 01006KT 260V030 CAVOK 31/26 Q1006 BECMG 07006KT

Aviation forecast (TAF) for Abu Dhabi International Airport

Retrieved 2021/10/16 18:00 UTC (7 minutes ago):

TAF OMAA 161700Z 1618/1800 06006KT 8000 NSC BECMG 1702/1704 14008KT BECMG 1709/1711 32012KT BECMG 1716/1718 06006KT